Time;durP1;ratioP1;P1;durP2;ratioP2;P2;SDS_P1;SDS_P2;PMS_P1;PMS_P2;Temp;Humidity;BMP_temperature;BMP_pressure;BME280_temperature;BME280_humidity;BME280_pressure;Samples;Min_cycle;Max_cycle;Signal;HPM_P1;HPM_P2
2022/08/14 00:01:37;;;;;;;15.48;4.58;;;;;;;19.23;75.09;101402.00;1654111;85;22048;-83
2022/08/14 00:04:04;;;;;;;10.58;4.50;;;;;;;19.17;75.10;101398.88;1644123;85;20984;-83
2022/08/14 00:06:33;;;;;;;11.63;4.60;;;;;;;19.12;75.21;101392.66;1658599;85;21472;-83
2022/08/14 00:08:59;;;;;;;10.45;4.37;;;;;;;19.10;75.53;101396.22;1643039;84;21055;-83
2022/08/14 00:11:30;;;;;;;10.03;4.08;;;;;;;19.09;75.77;101394.00;1634695;83;21797;-83
2022/08/14 00:13:56;;;;;;;13.72;4.58;;;;;;;19.07;75.81;101394.45;1647796;83;21746;-83
2022/08/14 00:16:23;;;;;;;10.28;4.45;;;;;;;19.03;75.85;101388.22;1649438;83;20999;-83
2022/08/14 00:18:50;;;;;;;10.18;3.70;;;;;;;19.01;75.90;101391.34;1675192;83;21018;-83
2022/08/14 00:21:17;;;;;;;7.78;3.83;;;;;;;18.99;76.21;101390.42;1656195;83;21398;-83
2022/08/14 00:23:43;;;;;;;10.93;3.65;;;;;;;18.97;76.28;101398.87;1647514;83;21657;-84
2022/08/14 00:26:10;;;;;;;7.92;3.60;;;;;;;18.96;76.54;101390.44;1663719;85;22916;-83
2022/08/14 00:28:37;;;;;;;9.40;3.62;;;;;;;18.96;76.71;101391.77;1655525;83;21925;-83
2022/08/14 00:31:05;;;;;;;8.58;3.85;;;;;;;18.95;76.75;101394.44;1661019;83;21002;-83
2022/08/14 00:33:40;;;;;;;5.62;3.77;;;;;;;18.94;76.77;101393.97;1647442;83;21057;-83
2022/08/14 00:36:08;;;;;;;16.60;3.87;;;;;;;18.93;77.03;101395.76;1647512;83;21992;-83
2022/08/14 00:38:35;;;;;;;22.17;5.03;;;;;;;18.93;77.21;101388.20;1647405;83;21738;-83
2022/08/14 00:41:05;;;;;;;10.75;3.92;;;;;;;18.93;77.42;101385.55;1658513;83;21015;-83
2022/08/14 00:43:35;;;;;;;9.03;3.77;;;;;;;18.92;77.10;101386.41;1673634;83;21406;-83
2022/08/14 00:46:04;;;;;;;9.13;4.20;;;;;;;18.88;76.94;101389.97;1657892;83;20979;-83
2022/08/14 00:48:36;;;;;;;14.87;4.25;;;;;;;18.80;76.92;101384.18;1655539;83;21584;-84
2022/08/14 00:51:07;;;;;;;11.53;3.62;;;;;;;18.76;77.02;101381.04;1653318;83;21964;-83
2022/08/14 00:53:35;;;;;;;12.55;3.90;;;;;;;18.73;77.28;101379.72;1656450;83;21067;-83
2022/08/14 00:56:03;;;;;;;9.00;3.75;;;;;;;18.73;77.59;101377.06;1666598;83;21421;-83
2022/08/14 00:58:31;;;;;;;11.08;3.80;;;;;;;18.74;77.67;101377.94;1672399;83;21062;-84
2022/08/14 01:01:04;;;;;;;7.35;3.72;;;;;;;18.70;77.44;101375.70;1673070;83;21046;-83
2022/08/14 01:03:38;;;;;;;13.20;3.92;;;;;;;18.66;77.29;101376.59;1674960;83;21867;-83
2022/08/14 01:05:59;;;;;;;9.08;3.80;;;;;;;18.60;77.31;101376.56;1651813;83;20987;-83
2022/08/14 01:08:28;;;;;;;9.28;4.00;;;;;;;18.55;77.40;101375.69;1647904;83;21010;-83
2022/08/14 01:10:55;;;;;;;17.12;4.00;;;;;;;18.51;77.50;101372.12;1653294;83;21390;-83
2022/08/14 01:13:24;;;;;;;8.68;3.90;;;;;;;18.48;77.61;101368.10;1667186;83;20919;-83
2022/08/14 01:15:57;;;;;;;14.68;4.50;;;;;;;18.44;77.74;101364.53;1647737;83;21744;-83
2022/08/14 01:21:14;;;;;;;12.75;5.30;;;;;;;18.41;77.99;101357.89;1648073;83;20999;-83
2022/08/14 01:23:46;;;;;;;8.95;5.20;;;;;;;18.38;78.03;101367.20;1647794;83;21597;-83
2022/08/14 01:26:14;;;;;;;14.25;4.53;;;;;;;18.37;78.20;101358.73;1648043;83;21058;-83
2022/08/14 01:28:41;;;;;;;7.72;3.67;;;;;;;18.36;78.38;101362.77;1654083;83;21781;-83
2022/08/14 01:31:15;;;;;;;6.47;3.45;;;;;;;18.35;78.38;101367.17;1660312;85;21006;-83
2022/08/14 01:33:45;;;;;;;7.35;3.75;;;;;;;18.35;78.30;101363.63;1648030;83;21015;-83
2022/08/14 01:36:12;;;;;;;10.43;4.08;;;;;;;18.32;78.19;101357.86;1647649;83;21035;-83
2022/08/14 01:38:41;;;;;;;9.50;4.12;;;;;;;18.26;78.17;101358.73;1647596;83;21070;-83
2022/08/14 01:41:14;;;;;;;10.43;4.45;;;;;;;18.24;78.19;101363.59;1647042;83;21752;-83
2022/08/14 01:44:04;;;;;;;8.08;4.30;;;;;;;18.21;78.17;101355.61;1665354;83;21576;-83
2022/08/14 01:46:31;;;;;;;14.90;4.28;;;;;;;18.16;78.19;101361.36;1646745;83;21132;-83
2022/08/14 01:48:58;;;;;;;11.95;4.17;;;;;;;18.12;78.27;101363.56;1646073;83;21113;-83
2022/08/14 01:51:27;;;;;;;7.22;4.95;;;;;;;18.08;78.28;101364.00;1646111;83;21073;-83
2022/08/14 01:53:56;;;;;;;11.12;4.65;;;;;;;18.04;78.39;101361.76;1665203;83;21716;-83
2022/08/14 01:56:35;;;;;;;8.40;4.80;;;;;;;18.02;78.53;101361.31;1646001;83;21525;-83
2022/08/14 01:59:01;;;;;;;11.15;4.90;;;;;;;17.98;78.73;101351.50;1649147;83;22374;-83
2022/08/14 02:01:29;;;;;;;6.87;4.05;;;;;;;17.96;78.92;101347.95;1661810;83;21074;-83
2022/08/14 02:03:57;;;;;;;13.03;4.78;;;;;;;17.95;79.11;101355.51;1646177;83;21086;-83
2022/08/14 02:06:29;;;;;;;13.20;4.92;;;;;;;17.93;79.18;101358.61;1645875;83;22575;-83
2022/08/14 02:08:56;;;;;;;8.45;4.55;;;;;;;17.91;79.18;101363.92;1646290;83;21150;-83
2022/08/14 02:11:23;;;;;;;12.47;4.35;;;;;;;17.91;79.18;101363.92;1668080;83;21058;-83
2022/08/14 02:14:08;;;;;;;7.20;3.85;;;;;;;17.88;79.20;101358.57;1661926;83;21568;-83
2022/08/14 02:16:39;;;;;;;16.00;4.28;;;;;;;17.84;79.24;101359.00;1646168;83;21484;-83
2022/08/14 02:19:14;;;;;;;17.37;4.50;;;;;;;17.80;79.33;101362.50;1646202;83;21746;-83
2022/08/14 02:21:42;;;;;;;11.22;4.42;;;;;;;17.79;79.44;101358.08;1645426;83;21597;-83
2022/08/14 02:24:09;;;;;;;9.45;4.33;;;;;;;17.77;79.50;101358.48;1669855;84;21089;-83
2022/08/14 02:26:40;;;;;;;11.60;3.92;;;;;;;17.75;79.57;101352.70;1646247;83;21133;-83
2022/08/14 02:29:10;;;;;;;7.90;3.70;;;;;;;17.73;79.70;101354.02;1646391;83;21085;-83
2022/08/14 02:31:40;;;;;;;7.87;4.20;;;;;;;17.71;79.81;101342.48;1648097;83;21805;-84
2022/08/14 02:34:09;;;;;;;12.82;4.20;;;;;;;17.69;79.92;101346.91;1657995;83;20980;-83
2022/08/14 02:36:37;;;;;;;10.25;4.83;;;;;;;17.67;79.95;101344.23;1656211;83;21038;-83
2022/08/14 02:39:09;;;;;;;8.28;3.90;;;;;;;17.66;80.13;101339.81;1647858;83;21050;-83
2022/08/14 02:41:36;;;;;;;10.43;3.98;;;;;;;17.65;80.12;101335.35;1665543;83;21063;-83
2022/08/14 02:44:08;;;;;;;11.10;4.20;;;;;;;17.60;80.19;101333.09;1667931;83;21007;-83
2022/08/14 02:46:35;;;;;;;10.13;4.28;;;;;;;17.61;80.23;101342.88;1644860;86;21591;-84
2022/08/14 02:49:01;;;;;;;8.20;3.60;;;;;;;17.60;80.33;101335.76;1653263;85;20983;-83
2022/08/14 02:51:28;;;;;;;11.90;4.55;;;;;;;17.58;80.38;101334.86;1648775;85;21051;-83
2022/08/14 02:53:57;;;;;;;10.88;4.20;;;;;;;17.56;80.41;101331.30;1644562;85;21010;-83
2022/08/14 02:56:26;;;;;;;9.90;3.98;;;;;;;17.55;80.45;101330.88;1660773;84;21679;-83
2022/08/14 02:58:52;;;;;;;8.88;4.20;;;;;;;17.54;80.63;101323.76;1666765;84;21449;-83
2022/08/14 03:01:21;;;;;;;8.38;4.08;;;;;;;17.52;80.71;101326.85;1665841;84;21104;-83
2022/08/14 03:03:51;;;;;;;7.53;4.12;;;;;;;17.51;80.77;101329.05;1665431;84;21219;-83
2022/08/14 03:06:19;;;;;;;7.55;4.28;;;;;;;17.48;80.78;101333.05;1665485;84;21133;-83
2022/08/14 03:08:47;;;;;;;7.10;3.83;;;;;;;17.46;80.87;101330.82;1665585;84;22047;-83
2022/08/14 03:11:14;;;;;;;6.33;3.75;;;;;;;17.46;80.96;101329.48;1685514;83;21085;-83
2022/08/14 03:13:44;;;;;;;8.13;3.72;;;;;;;17.45;81.01;101330.36;1666007;83;21144;-83
2022/08/14 03:16:18;;;;;;;7.85;3.60;;;;;;;17.44;81.14;101330.80;1665634;82;21379;-83
2022/08/14 03:18:45;;;;;;;10.38;4.50;;;;;;;17.44;81.19;101327.27;1665435;82;21709;-83
2022/08/14 03:21:17;;;;;;;11.83;4.30;;;;;;;17.43;81.33;101323.69;1665517;82;22594;-83
2022/08/14 03:23:46;;;;;;;13.45;4.40;;;;;;;17.43;81.36;101325.02;1673681;82;21081;-83
2022/08/14 03:26:18;;;;;;;9.45;4.60;;;;;;;17.44;81.46;101324.59;1676489;82;21072;-83
2022/08/14 03:28:50;;;;;;;10.60;4.12;;;;;;;17.47;81.50;101333.50;1665825;82;22231;-83
2022/08/14 03:31:20;;;;;;;8.40;4.15;;;;;;;17.48;81.51;101324.61;1682603;82;21096;-83
2022/08/14 03:33:45;;;;;;;9.68;4.08;;;;;;;17.50;81.47;101327.29;1688045;82;21752;-83
2022/08/14 03:36:13;;;;;;;13.38;4.03;;;;;;;17.54;81.42;101330.86;1665664;82;21117;-83
2022/08/14 03:38:42;;;;;;;9.10;4.17;;;;;;;17.55;81.47;101332.20;1691047;82;21074;-83
2022/08/14 03:41:13;;;;;;;8.25;3.98;;;;;;;17.60;81.46;101331.77;1695389;82;20998;-83
2022/08/14 03:43:44;;;;;;;5.35;3.65;;;;;;;17.65;81.47;101324.70;1675493;82;21881;-83
2022/08/14 03:46:12;;;;;;;12.18;4.30;;;;;;;17.72;81.46;101324.30;1683316;82;22372;-83
2022/08/14 03:48:40;;;;;;;6.30;3.85;;;;;;;17.95;82.37;101321.77;1668146;82;21406;-82
2022/08/14 03:51:11;;;;;;;15.90;4.15;;;;;;;18.75;83.39;101319.27;1693914;82;21066;-83
2022/08/14 03:53:40;;;;;;;9.93;3.77;;;;;;;19.70;82.97;101313.36;1675651;82;21046;-83
2022/08/14 03:56:13;;;;;;;9.88;3.83;;;;;;;20.58;81.91;101313.34;1667010;82;21575;-83
2022/08/14 03:58:44;;;;;;;10.67;4.00;;;;;;;21.42;80.61;101309.49;1648163;85;21691;-83
2022/08/14 04:01:11;;;;;;;8.45;3.72;;;;;;;22.27;79.32;101309.82;1666693;84;22023;-83
2022/08/14 04:03:38;;;;;;;7.75;2.85;;;;;;;23.09;78.19;101310.77;1682990;84;21044;-83
2022/08/14 04:06:10;;;;;;;10.18;3.75;;;;;;;23.96;76.54;101308.63;1653442;83;21090;-84
2022/08/14 04:08:38;;;;;;;8.43;3.27;;;;;;;24.75;75.05;101309.06;1648234;84;21043;-84
2022/08/14 04:11:05;;;;;;;6.55;3.25;;;;;;;25.52;73.29;101297.61;1647882;85;21732;-84
2022/08/14 04:13:34;;;;;;;7.58;3.15;;;;;;;26.10;71.41;101297.25;1647715;83;21454;-84
2022/08/14 04:16:08;;;;;;;11.50;3.30;;;;;;;26.51;70.08;101299.09;1664565;83;21022;-84
2022/08/14 04:18:42;;;;;;;8.13;3.10;;;;;;;27.00;69.31;101296.59;1667661;83;21007;-84
2022/08/14 04:21:13;;;;;;;7.80;3.10;;;;;;;27.61;68.50;101299.39;1665181;83;21011;-84
2022/08/14 04:23:39;;;;;;;8.68;3.27;;;;;;;28.16;66.30;101289.66;1658508;84;21911;-84
2022/08/14 04:26:10;;;;;;;12.78;3.30;;;;;;;28.67;65.83;101295.27;1647680;85;21537;-84
2022/08/14 04:28:38;;;;;;;8.30;3.27;;;;;;;29.20;64.49;101296.14;1647772;85;21862;-84
2022/08/14 04:31:05;;;;;;;12.20;3.30;;;;;;;29.89;63.42;101288.08;1646652;85;21004;-84
2022/08/14 04:33:35;;;;;;;11.45;3.47;;;;;;;30.42;62.17;101291.39;1664368;84;21003;-84
2022/08/14 04:36:02;;;;;;;11.18;3.65;;;;;;;30.83;60.75;101286.68;1678894;83;21729;-84
2022/08/14 04:43:59;;;;;;;10.78;3.98;;;;;;;32.35;57.58;101296.14;1647847;84;21126;-85
2022/08/14 04:46:27;;;;;;;11.08;4.50;;;;;;;32.68;55.63;101295.15;1654410;85;21101;-85
2022/08/14 04:48:56;;;;;;;9.50;4.05;;;;;;;33.08;55.26;101296.86;1654335;84;21772;-84
2022/08/14 04:51:26;;;;;;;12.20;5.03;;;;;;;33.74;54.27;101290.06;1661045;85;20987;-85
2022/08/14 04:53:54;;;;;;;9.00;4.50;;;;;;;34.05;52.90;101286.22;1653412;85;21015;-84
2022/08/14 04:56:24;;;;;;;10.55;4.50;;;;;;;34.39;51.90;101289.98;1656042;85;21167;-85
2022/08/14 04:58:56;;;;;;;11.18;4.60;;;;;;;34.67;50.86;101284.89;1646372;85;21074;-85
2022/08/14 05:01:21;;;;;;;8.25;4.45;;;;;;;35.17;50.26;101283.23;1641810;85;21875;-85
2022/08/14 05:03:48;;;;;;;9.80;5.72;;;;;;;35.77;49.78;101282.25;1654966;85;20979;-85
2022/08/14 05:06:15;;;;;;;14.40;5.67;;;;;;;36.42;48.49;101281.61;1639969;85;21006;-85
2022/08/14 05:08:42;;;;;;;15.48;5.72;;;;;;;36.50;46.79;101279.14;1640020;85;21039;-85
2022/08/14 05:11:09;;;;;;;9.15;5.08;;;;;;;36.44;46.19;101278.25;1652918;83;20931;-85
2022/08/14 05:13:36;;;;;;;12.90;4.70;;;;;;;36.62;46.00;101281.43;1647628;83;21749;-85
2022/08/14 05:16:04;;;;;;;12.93;5.53;;;;;;;36.73;44.44;101285.63;1647438;83;20983;-85
2022/08/14 05:18:34;;;;;;;16.32;5.53;;;;;;;36.91;44.58;101281.45;1647404;83;21019;-85
2022/08/14 05:21:04;;;;;;;14.23;5.55;;;;;;;37.33;43.90;101282.33;1647320;83;21023;-85
2022/08/14 05:23:33;;;;;;;15.95;5.58;;;;;;;37.35;42.79;101291.31;1647275;83;21086;-85
2022/08/14 05:26:04;;;;;;;13.55;5.08;;;;;;;36.96;42.26;101287.47;1647420;83;21752;-85
2022/08/14 05:28:32;;;;;;;12.15;5.62;;;;;;;36.99;42.27;101284.10;1670658;83;21521;-85
2022/08/14 05:31:02;;;;;;;10.30;5.37;;;;;;;36.78;41.64;101284.28;1647356;83;21062;-85
2022/08/14 05:33:30;;;;;;;10.93;6.15;;;;;;;35.98;41.36;101288.00;1650263;83;21528;-85
2022/08/14 05:35:59;;;;;;;19.82;7.35;;;;;;;34.94;41.07;101281.27;1688296;84;21038;-85
2022/08/14 05:38:33;;;;;;;16.05;7.17;;;;;;;33.30;41.70;101285.55;1667342;83;21740;-85
2022/08/14 05:41:11;;;;;;;19.67;7.35;;;;;;;32.00;42.78;101283.16;1647454;85;20991;-85
2022/08/14 05:43:39;;;;;;;15.58;6.92;;;;;;;30.99;43.71;101282.25;1646163;85;21947;-84
2022/08/14 05:46:08;;;;;;;21.45;8.35;;;;;;;29.78;44.98;101280.92;1656833;85;21357;-84
2022/08/14 05:48:35;;;;;;;13.48;8.63;;;;;;;28.98;46.04;101283.09;1655177;85;21035;-84
2022/08/14 05:51:02;;;;;;;15.40;8.73;;;;;;;28.12;47.20;101282.14;1662798;85;21728;-84
2022/08/14 05:53:31;;;;;;;22.60;9.83;;;;;;;27.56;48.35;101286.53;1647706;85;20994;-84
2022/08/14 05:55:58;;;;;;;20.77;10.10;;;;;;;27.04;48.88;101277.11;1650204;84;22097;-84
2022/08/14 05:58:25;;;;;;;17.75;9.50;;;;;;;26.57;49.59;101276.41;1660617;85;21022;-84
2022/08/14 06:00:52;;;;;;;15.28;9.93;;;;;;;26.12;50.57;101272.92;1642092;85;20930;-84
2022/08/14 06:03:22;;;;;;;16.67;9.35;;;;;;;25.89;51.23;101271.79;1661926;84;21771;-84
2022/08/14 06:05:51;;;;;;;15.20;7.28;;;;;;;25.55;51.70;101266.06;1636314;85;21029;-84
2022/08/14 06:08:21;;;;;;;15.63;7.40;;;;;;;25.31;51.96;101275.73;1648189;84;20995;-84
2022/08/14 06:10:50;;;;;;;15.30;8.55;;;;;;;25.06;52.53;101278.19;1649906;85;21039;-84
2022/08/14 06:13:17;;;;;;;11.73;6.65;;;;;;;24.80;53.44;101264.94;1645563;83;22071;-84
2022/08/14 06:15:44;;;;;;;15.45;6.92;;;;;;;24.67;54.09;101264.84;1647642;84;22609;-84
2022/08/14 06:18:11;;;;;;;12.73;6.58;;;;;;;24.55;54.37;101268.73;1645691;85;21101;-84
2022/08/14 06:20:37;;;;;;;13.15;6.05;;;;;;;24.43;54.70;101268.98;1645565;85;21118;-83
2022/08/14 06:23:04;;;;;;;9.90;6.00;;;;;;;24.25;54.98;101268.52;1645061;83;21091;-84
2022/08/14 06:25:31;;;;;;;12.47;6.05;;;;;;;24.10;55.42;101270.22;1645676;85;21057;-84
2022/08/14 06:27:58;;;;;;;14.13;5.87;;;;;;;23.96;55.92;101267.83;1645701;85;21759;-84
2022/08/14 06:30:30;;;;;;;9.58;5.90;;;;;;;23.83;56.23;101274.40;1647873;85;21136;-84
2022/08/14 06:32:56;;;;;;;23.85;6.50;;;;;;;23.71;56.59;101272.84;1658250;85;21894;-84
2022/08/14 06:35:23;;;;;;;9.98;5.33;;;;;;;23.63;56.89;101266.28;1661319;84;21165;-84
2022/08/14 06:37:53;;;;;;;12.85;5.75;;;;;;;23.59;57.15;101267.70;1674800;84;21067;-83
2022/08/14 06:40:23;;;;;;;10.00;5.28;;;;;;;23.54;57.29;101273.19;1655255;84;21867;-84
2022/08/14 06:42:50;;;;;;;13.83;5.72;;;;;;;23.49;57.55;101261.17;1645508;85;21085;-84
2022/08/14 06:45:18;;;;;;;11.60;4.90;;;;;;;23.48;57.82;101267.48;1645655;85;21126;-83
2022/08/14 06:47:46;;;;;;;12.05;4.85;;;;;;;23.48;57.85;101265.23;1659994;84;21685;-83
2022/08/14 06:50:16;;;;;;;13.08;5.42;;;;;;;23.51;58.00;101267.86;1662759;84;21097;-83
2022/08/14 06:52:43;;;;;;;11.83;7.22;;;;;;;23.52;58.31;101260.68;1663801;85;21768;-84
2022/08/14 06:55:14;;;;;;;16.30;5.40;;;;;;;23.54;58.57;101257.50;1674619;84;21077;-85
2022/08/14 06:57:47;;;;;;;9.43;4.58;;;;;;;23.58;58.78;101253.39;1646923;84;21169;-84
2022/08/14 07:00:19;;;;;;;12.18;4.92;;;;;;;23.63;58.86;101258.66;1642908;84;21085;-84
2022/08/14 07:05:49;;;;;;;12.73;5.03;;;;;;;23.60;58.89;101257.39;1653572;85;21749;-84
2022/08/14 07:08:27;;;;;;;8.48;4.47;;;;;;;23.63;58.76;101270.75;1650850;85;20991;-84
2022/08/14 07:10:59;;;;;;;8.33;5.28;;;;;;;23.62;58.94;101263.62;1651884;85;21385;-84
2022/08/14 07:13:27;;;;;;;8.70;4.60;;;;;;;23.69;59.17;101259.89;1653792;85;21824;-84
2022/08/14 07:15:55;;;;;;;14.83;4.30;;;;;;;23.74;59.43;101260.66;1667304;84;21007;-84
2022/08/14 07:18:27;;;;;;;7.47;4.20;;;;;;;23.77;59.47;101247.16;1658328;84;21663;-84
2022/08/14 07:20:54;;;;;;;7.47;3.65;;;;;;;23.78;59.65;101242.22;1657060;85;21011;-84
2022/08/14 07:23:22;;;;;;;5.40;3.35;;;;;;;23.82;59.72;101240.39;1652868;84;21018;-84
2022/08/14 07:25:51;;;;;;;11.28;4.05;;;;;;;23.89;59.79;101241.11;1658971;85;20991;-85
2022/08/14 07:28:23;;;;;;;8.48;4.55;;;;;;;23.89;59.71;101242.46;1664710;84;20983;-84
2022/08/14 07:30:55;;;;;;;11.12;4.53;;;;;;;23.96;59.76;101253.04;1657325;85;21744;-84
2022/08/14 07:33:28;;;;;;;12.65;3.83;;;;;;;24.01;59.55;101253.83;1662260;83;21059;-84
2022/08/14 07:36:10;;;;;;;12.45;3.70;;;;;;;24.05;59.18;101244.77;1662470;83;21169;-84
2022/08/14 07:38:40;;;;;;;9.58;4.65;;;;;;;24.10;59.30;101240.64;1660065;84;21027;-84
2022/08/14 07:41:07;;;;;;;11.33;3.47;;;;;;;24.17;59.21;101244.05;1658505;84;21508;-84
2022/08/14 07:43:49;;;;;;;8.90;3.72;;;;;;;24.20;59.07;101241.30;1619602;85;22191;-84
2022/08/14 07:46:09;;;;;;;9.08;3.22;;;;;;;24.24;58.88;101242.98;1606662;88;21098;-84
2022/08/14 07:48:42;;;;;;;7.00;3.40;;;;;;;24.30;58.65;101235.23;1594845;88;21119;-84
2022/08/14 07:51:09;;;;;;;9.80;3.70;;;;;;;24.33;58.34;101245.94;1593463;88;21159;-84
2022/08/14 07:53:36;;;;;;;10.75;3.15;;;;;;;24.33;58.26;101240.08;1596115;88;21180;-84
2022/08/14 07:56:02;;;;;;;11.08;3.30;;;;;;;24.33;58.34;101239.20;1595611;88;21973;-84
2022/08/14 07:58:30;;;;;;;5.85;3.50;;;;;;;24.36;58.36;101242.70;1579807;89;47902;-84
2022/08/14 08:00:58;;;;;;;8.70;3.20;;;;;;;24.39;58.26;101228.28;1595429;88;21088;-84
2022/08/14 08:03:26;;;;;;;7.87;3.10;;;;;;;24.46;58.21;101233.94;1596037;88;21084;-84
2022/08/14 08:05:53;;;;;;;7.28;2.75;;;;;;;24.50;57.96;101228.90;1595784;88;21653;-84
2022/08/14 08:08:20;;;;;;;3.95;2.47;;;;;;;24.52;57.78;101232.47;1593390;88;21869;-84
2022/08/14 08:10:48;;;;;;;5.75;2.58;;;;;;;24.57;57.37;101232.33;1590015;89;21696;-84
2022/08/14 08:13:17;;;;;;;9.73;3.15;;;;;;;24.60;57.18;101233.61;1610067;87;21105;-84
2022/08/14 08:15:50;;;;;;;9.93;2.95;;;;;;;24.68;56.95;101238.80;1608383;88;21780;-84
2022/08/14 08:18:16;;;;;;;8.75;2.87;;;;;;;24.72;56.91;101233.75;1603891;88;21321;-84
2022/08/14 08:20:46;;;;;;;4.78;3.00;;;;;;;24.75;56.58;101233.67;1598157;88;21763;-84
2022/08/14 08:23:15;;;;;;;5.08;3.10;;;;;;;24.79;56.31;101239.40;1600165;88;21091;-84
2022/08/14 08:25:43;;;;;;;9.80;3.12;;;;;;;24.82;56.20;101230.78;1594894;88;21456;-84
2022/08/14 08:28:19;;;;;;;6.20;3.00;;;;;;;24.87;56.15;101221.69;1601771;87;21009;-84
2022/08/14 08:30:53;;;;;;;7.95;3.35;;;;;;;24.91;56.10;101223.37;1601715;88;21060;-84
2022/08/14 08:33:22;;;;;;;;;;;;;;;24.99;56.13;101220.90;1603344;88;22667;-84
2022/08/14 08:35:49;;;;;;;5.87;3.80;;;;;;;25.05;55.68;101219.84;1601906;88;20180;-84
2022/08/14 08:38:18;;;;;;;6.55;4.08;;;;;;;25.12;55.52;101218.75;1593791;88;21564;-84
2022/08/14 08:40:47;;;;;;;11.00;2.92;;;;;;;25.14;55.06;101213.33;1586836;89;21089;-85
2022/08/14 08:43:32;;;;;;;5.72;2.52;;;;;;;25.13;54.76;101206.16;1605034;88;21036;-84
2022/08/14 08:46:04;;;;;;;6.67;2.47;;;;;;;25.18;54.44;101216.34;1599891;88;23297;-85
2022/08/14 08:48:53;;;;;;;5.00;2.50;;;;;;;25.22;54.17;101222.06;1623786;87;21101;-84
2022/08/14 08:51:29;;;;;;;7.10;2.62;;;;;;;25.26;53.81;101225.59;1609789;86;22630;-84
2022/08/14 08:54:08;;;;;;;6.45;2.42;;;;;;;25.31;53.89;101215.09;1599750;88;21176;-84
2022/08/14 08:56:46;;;;;;;9.88;2.75;;;;;;;25.36;53.53;101215.86;1624102;87;21026;-85
2022/08/14 08:59:26;;;;;;;5.67;2.47;;;;;;;25.39;53.66;101198.23;1624025;86;21763;-84
2022/08/14 09:01:57;;;;;;;9.63;4.70;;;;;;;25.45;53.60;101208.42;1624156;88;21485;-84
2022/08/14 09:04:28;;;;;;;7.00;2.60;;;;;;;25.52;53.62;101200.09;1624712;87;21478;-84
2022/08/14 09:06:55;;;;;;;6.30;2.55;;;;;;;25.55;53.00;101194.62;1623691;88;21103;-85
2022/08/14 09:09:24;;;;;;;3.15;2.58;;;;;;;25.56;53.29;101199.55;1622854;87;21085;-85
2022/08/14 09:11:53;;;;;;;9.20;2.85;;;;;;;25.60;53.14;101196.73;1623255;86;21787;-84
2022/08/14 09:14:22;;;;;;;5.83;2.85;;;;;;;25.58;52.89;101198.59;1624272;87;21526;-84
2022/08/14 09:16:50;;;;;;;11.63;2.60;;;;;;;25.60;52.86;101196.73;1624691;85;21116;-84
2022/08/14 09:19:16;;;;;;;6.45;2.45;;;;;;;25.66;52.79;101201.05;1624299;86;21756;-84
2022/08/14 09:21:43;;;;;;;7.92;2.30;;;;;;;25.69;52.54;101192.84;1624321;87;21720;-84
2022/08/14 09:24:10;;;;;;;8.30;2.40;;;;;;;25.68;52.29;101185.70;1656242;85;22664;-84
2022/08/14 09:26:37;;;;;;;9.43;2.50;;;;;;;25.72;52.18;101186.02;1624433;86;21001;-84
2022/08/14 09:29:04;;;;;;;7.90;2.62;;;;;;;25.75;52.10;101179.20;1624519;86;21144;-84
2022/08/14 09:31:33;;;;;;;6.30;2.20;;;;;;;25.75;51.73;101195.38;1624433;86;21149;-84
2022/08/14 09:34:30;;;;;;;8.50;2.40;;;;;;;25.76;51.65;101178.25;1624571;86;21113;-84
2022/08/14 09:37:36;;;;;;;5.08;2.22;;;;;;;25.81;51.68;101172.73;1624060;86;21771;-84
2022/08/14 09:40:18;;;;;;;6.25;2.58;;;;;;;25.79;51.33;101172.77;1624176;86;21089;-84
2022/08/14 09:43:31;;;;;;;4.60;2.27;;;;;;;25.79;51.44;101152.55;1624076;86;21096;-84
2022/08/14 09:45:58;;;;;;;4.40;2.58;;;;;;;25.81;51.41;101148.45;1606913;86;21368;-84
2022/08/14 09:48:28;;;;;;;9.63;3.52;;;;;;;25.87;51.50;101156.34;1624399;86;21077;-84
2022/08/14 09:50:56;;;;;;;5.30;2.58;;;;;;;25.83;51.58;101139.84;1624155;86;21774;-84
2022/08/14 09:53:47;;;;;;;9.70;2.75;;;;;;;25.83;51.69;101137.59;1624275;86;21125;-84
2022/08/14 09:56:13;;;;;;;6.45;3.17;;;;;;;25.88;51.78;101154.05;1623987;86;21085;-84
2022/08/14 09:58:44;;;;;;;6.00;2.40;;;;;;;25.88;51.54;101150.00;1624054;87;21916;-84
2022/08/14 10:01:14;;;;;;;6.35;2.58;;;;;;;25.77;51.50;101144.06;1606133;86;21176;-84
2022/08/14 10:03:55;;;;;;;8.63;2.85;;;;;;;25.71;51.77;101135.70;1623742;86;21865;-84
2022/08/14 10:06:26;;;;;;;5.80;2.77;;;;;;;25.78;51.83;101135.94;1623988;86;21152;-84
2022/08/14 10:09:08;;;;;;;8.95;2.87;;;;;;;25.81;51.74;101134.97;1624031;86;21158;-84
2022/08/14 10:11:36;;;;;;;4.00;2.77;;;;;;;25.85;51.51;101147.42;1624458;86;21081;-84
2022/08/14 10:14:18;;;;;;;6.05;2.55;;;;;;;25.84;51.79;101131.28;1624313;86;21089;-84
2022/08/14 10:16:53;;;;;;;7.28;2.65;;;;;;;25.87;51.79;101138.81;1624326;86;21779;-84
2022/08/14 10:19:24;;;;;;;4.95;2.55;;;;;;;25.91;51.43;101134.20;1624036;87;21107;-84
2022/08/14 10:22:09;;;;;;;7.15;2.47;;;;;;;25.89;51.50;101132.03;1624220;86;21143;-84
2022/08/14 10:24:45;;;;;;;8.08;2.85;;;;;;;25.97;51.57;101130.85;1624203;86;21705;-84
2022/08/14 10:27:17;;;;;;;7.85;2.62;;;;;;;25.99;51.31;101129.45;1589733;87;21093;-84
2022/08/14 10:29:49;;;;;;;6.62;2.85;;;;;;;26.02;51.19;101123.10;1624637;86;22606;-84
2022/08/14 10:32:16;;;;;;;3.92;2.75;;;;;;;25.98;51.11;101135.80;1606798;88;21530;-84
2022/08/14 10:34:43;;;;;;;8.28;2.85;;;;;;;25.95;51.36;101115.19;1624652;86;21109;-84
2022/08/14 10:37:11;;;;;;;6.85;2.52;;;;;;;25.93;51.24;101104.92;1624178;86;21131;-84
2022/08/14 10:39:39;;;;;;;4.80;2.70;;;;;;;25.90;51.37;101098.71;1624962;86;21109;-84
2022/08/14 10:42:13;;;;;;;6.80;2.67;;;;;;;25.97;51.25;101101.18;1624730;86;21779;-84
2022/08/14 10:44:46;;;;;;;10.63;3.52;;;;;;;25.96;51.23;101122.36;1625903;86;21803;-84
2022/08/14 10:47:11;;;;;;;12.35;2.80;;;;;;;25.85;51.24;101102.92;1626261;85;21100;-84
2022/08/14 10:49:48;;;;;;;7.08;3.37;;;;;;;25.86;51.38;101107.84;1626126;86;21067;-85
2022/08/14 10:52:13;;;;;;;8.75;2.87;;;;;;;25.89;51.47;101122.59;1625505;86;21857;-84
2022/08/14 10:54:44;;;;;;;11.90;3.67;;;;;;;25.84;51.55;101111.94;1660063;85;21745;-84
2022/08/14 10:57:23;;;;;;;4.45;2.92;;;;;;;25.77;51.75;101103.62;1625900;88;21018;-84
2022/08/14 10:59:59;;;;;;;8.45;5.50;;;;;;;25.77;51.97;101100.48;1626184;86;21028;-84
2022/08/14 11:02:35;;;;;;;4.62;2.40;;;;;;;25.83;52.16;101096.70;1624666;86;21021;-84
2022/08/14 11:05:16;;;;;;;6.83;2.77;;;;;;;25.87;52.05;101097.48;1624330;86;21554;-84
2022/08/14 11:07:56;;;;;;;9.15;2.67;;;;;;;25.84;52.15;101088.14;1624144;86;21787;-84
2022/08/14 11:10:26;;;;;;;6.72;2.83;;;;;;;25.89;52.19;101099.19;1624194;87;21105;-85
2022/08/14 11:12:56;;;;;;;9.00;2.75;;;;;;;25.88;52.20;101114.06;1624119;86;21155;-84
2022/08/14 11:15:27;;;;;;;5.20;2.65;;;;;;;25.79;51.99;101102.66;1624189;86;21598;-84
2022/08/14 11:17:55;;;;;;;11.63;2.98;;;;;;;25.77;52.15;101092.84;1624083;87;21342;-84
2022/08/14 11:20:24;;;;;;;7.67;3.37;;;;;;;25.75;52.26;101096.95;1624238;88;22467;-84
2022/08/14 11:22:55;;;;;;;5.67;3.20;;;;;;;25.78;52.25;101093.27;1625738;86;21033;-84
2022/08/14 11:25:25;;;;;;;6.97;3.12;;;;;;;25.84;52.15;101089.48;1625691;86;21025;-84
2022/08/14 11:27:56;;;;;;;8.48;2.85;;;;;;;25.82;52.15;101083.27;1625749;86;21073;-84
2022/08/14 11:30:27;;;;;;;4.92;2.67;;;;;;;25.79;52.30;101085.61;1652555;85;21080;-84
2022/08/14 11:32:54;;;;;;;6.75;2.70;;;;;;;25.86;52.43;101081.75;1625809;86;21828;-84
2022/08/14 11:35:23;;;;;;;6.47;3.10;;;;;;;25.87;52.28;101079.95;1625647;86;21049;-84
2022/08/14 11:37:58;;;;;;;6.03;3.40;;;;;;;25.86;52.53;101069.61;1625786;86;21014;-84
2022/08/14 11:40:35;;;;;;;12.65;3.35;;;;;;;25.93;52.65;101073.03;1625694;86;21026;-84
2022/08/14 11:43:07;;;;;;;12.50;3.12;;;;;;;25.93;52.56;101074.37;1626089;87;21050;-84
2022/08/14 11:45:36;;;;;;;6.45;2.72;;;;;;;25.91;52.86;101070.34;1626050;86;21742;-84
2022/08/14 11:48:24;;;;;;;7.20;3.85;;;;;;;26.01;53.03;101068.25;1626007;88;21002;-84